Weather at Amansa Guapos Airport

Public forecast

Using degrees Celsius for public forecast. Weather courtesy of forecast.io.

Closest aviation weather report (METAR) to Amansa Guapos Airport

Closest report is Ignacio Agramonte International Airport, 23.6 nm (43.8 km) ENE.

2024/05/20 02:50 (retrieved 1 hour ago)

MUCM 200250Z 05006KT 9000 FEW020 BKN250 27/23 Q1015

Closest aviation forecast (TAF) to Amansa Guapos Airport

Forecast is more than 12 hours old.

Closest forecast is Jaime Gonzalez Airport, 132.8 nm (245.9 km) WNW.

2024/05/18 12:03 (retrieved 2 days ago)

TAF MUCF 181100Z 1812/1824 VRB05KT 9000 SCT020 BECMG 1815/1817 21011KT